createdAt,value
2022-09-26T00:01:03.946Z,100759.03
2022-09-26T00:04:16.013Z,100753.44
2022-09-26T00:07:18.284Z,100749.06
2022-09-26T00:10:20.242Z,100745.47
2022-09-26T00:13:22.186Z,100751.13
2022-09-26T00:16:24.460Z,100745.69
2022-09-26T00:19:26.577Z,100749.25
2022-09-26T00:22:28.888Z,100711.78
2022-09-26T00:25:30.850Z,100733.78
2022-09-26T00:28:33.051Z,100734.84
2022-09-26T00:31:38.749Z,100735.66
2022-09-26T00:34:40.731Z,100731.28
2022-09-26T00:37:42.756Z,100728.56
2022-09-26T00:40:46.935Z,100725.22
2022-09-26T00:43:51.952Z,100721.47
2022-09-26T00:46:53.972Z,100707.25
2022-09-26T00:50:00.655Z,100715.19
2022-09-26T00:53:08.431Z,100711.63
2022-09-26T00:56:27.055Z,100714.34
2022-09-26T00:59:35.715Z,100711.00
2022-09-26T01:02:39.194Z,100704.75
2022-09-26T01:05:41.871Z,100716.22
2022-09-26T01:08:54.190Z,100709.31
2022-09-26T01:11:57.032Z,100705.78
2022-09-26T01:14:59.193Z,100704.09
2022-09-26T01:18:01.256Z,100701.59
2022-09-26T01:21:24.549Z,100698.25
2022-09-26T01:24:50.605Z,100690.72
2022-09-26T01:27:56.099Z,100688.03
2022-09-26T01:31:03.772Z,100677.97
2022-09-26T01:34:24.266Z,100681.97
2022-09-26T01:37:32.039Z,100670.44
2022-09-26T01:41:04.751Z,100676.31
2022-09-26T01:44:28.292Z,100669.00
2022-09-26T01:47:58.537Z,100666.06
2022-09-26T01:51:09.368Z,100665.03
2022-09-26T01:54:18.937Z,100659.81
2022-09-26T01:57:28.851Z,100661.91
2022-09-26T02:00:31.174Z,100663.59
2022-09-26T02:03:39.960Z,100660.91
2022-09-26T02:07:11.410Z,100655.66
2022-09-26T02:10:21.097Z,100638.94
2022-09-26T02:13:30.394Z,100644.63
2022-09-26T02:16:43.415Z,100648.56
2022-09-26T02:19:56.840Z,100647.91
2022-09-26T02:23:00.083Z,100651.69
2022-09-26T02:26:02.113Z,100644.19
2022-09-26T02:29:05.370Z,100644.19
2022-09-26T02:32:17.670Z,100641.47
2022-09-26T02:35:38.897Z,100637.88
2022-09-26T02:38:41.684Z,100637.28
2022-09-26T02:42:25.073Z,100636.22
2022-09-26T02:45:34.889Z,100630.56
2022-09-26T02:49:08.734Z,100642.88
2022-09-26T02:52:31.618Z,100638.50
2022-09-26T02:56:12.043Z,100651.66
2022-09-26T02:59:22.891Z,100645.59
2022-09-26T03:02:43.647Z,100652.69
2022-09-26T03:05:57.724Z,100636.78
2022-09-26T03:09:01.598Z,100640.09
2022-09-26T03:12:07.816Z,100649.28
2022-09-26T03:15:10.974Z,100637.13
2022-09-26T03:18:21.056Z,100632.09
2022-09-26T03:21:23.673Z,100629.81
2022-09-26T03:24:26.848Z,100630.06
2022-09-26T03:27:32.163Z,100631.34
2022-09-26T03:30:34.731Z,100630.97
2022-09-26T03:33:55.120Z,100638.06
2022-09-26T03:36:57.055Z,100636.00
2022-09-26T03:39:59.025Z,100624.50
2022-09-26T03:43:24.312Z,100619.66
2022-09-26T03:46:28.627Z,100638.50
2022-09-26T03:49:30.916Z,100631.59
2022-09-26T03:52:32.994Z,100638.72
2022-09-26T03:55:35.517Z,100628.03
2022-09-26T03:58:38.176Z,100637.88
2022-09-26T04:01:41.154Z,100639.13
2022-09-26T04:04:43.376Z,100634.53
2022-09-26T04:07:47.383Z,100643.72
2022-09-26T04:10:49.489Z,100649.56
2022-09-26T04:13:53.950Z,100648.09
2022-09-26T04:16:59.472Z,100657.72
2022-09-26T04:20:05.954Z,100631.81
2022-09-26T04:23:09.539Z,100627.88
2022-09-26T04:26:22.708Z,100626.16
2022-09-26T04:29:27.288Z,100628.69
2022-09-26T04:32:36.864Z,100615.97
2022-09-26T04:35:50.701Z,100623.88
2022-09-26T04:38:52.657Z,100626.81
2022-09-26T04:41:55.599Z,100612.59
2022-09-26T04:44:57.583Z,100628.06
2022-09-26T04:47:59.712Z,100610.94
2022-09-26T04:51:09.591Z,100619.09
2022-09-26T04:54:12.224Z,100624.31
2022-09-26T04:57:19.740Z,100626.84
2022-09-26T05:00:23.404Z,100613.47
2022-09-26T05:03:26.010Z,100605.97
2022-09-26T05:06:28.139Z,100603.88
2022-09-26T05:09:35.522Z,100610.34
2022-09-26T05:12:45.251Z,100628.50
2022-09-26T05:15:49.820Z,100628.50
2022-09-26T05:18:52.674Z,100601.34
2022-09-26T05:21:54.828Z,100598.03
2022-09-26T05:25:15.667Z,100606.19
2022-09-26T05:28:17.764Z,100599.91
2022-09-26T05:31:20.825Z,100594.47
2022-09-26T05:34:26.199Z,100589.47
2022-09-26T05:37:28.675Z,100609.13
2022-09-26T05:40:49.962Z,100609.94
2022-09-26T05:43:53.917Z,100566.84
2022-09-26T05:46:57.489Z,100586.97
2022-09-26T05:50:01.201Z,100576.75
2022-09-26T05:53:04.797Z,100569.06
2022-09-26T05:56:12.743Z,100564.25
2022-09-26T05:59:51.790Z,100569.91
2022-09-26T06:03:04.231Z,100531.22
2022-09-26T06:06:25.963Z,100530.19
2022-09-26T06:09:37.336Z,100567.59
2022-09-26T06:13:03.449Z,100555.03
2022-09-26T06:16:12.221Z,100555.28
2022-09-26T06:19:14.249Z,100559.47
2022-09-26T06:22:16.973Z,100567.63
2022-09-26T06:25:19.128Z,100575.75
2022-09-26T06:28:21.141Z,100573.88
2022-09-26T06:31:23.718Z,100576.56
2022-09-26T06:35:00.962Z,100585.34
2022-09-26T06:38:19.527Z,100597.91
2022-09-26T06:41:21.583Z,100598.72
2022-09-26T06:44:23.996Z,100601.88
2022-09-26T06:47:44.378Z,100589.53
2022-09-26T06:51:14.394Z,100592.47
2022-09-26T06:54:16.509Z,100590.13
2022-09-26T06:57:18.562Z,100576.97
2022-09-26T07:00:20.517Z,100562.16
2022-09-26T07:03:44.562Z,100568.44
2022-09-26T07:07:06.118Z,100579.50
2022-09-26T07:10:08.482Z,100568.47
2022-09-26T07:13:17.277Z,100572.84
2022-09-26T07:16:19.361Z,100538.75
2022-09-26T07:19:53.943Z,100561.56
2022-09-26T07:23:27.800Z,100572.63
2022-09-26T07:26:30.582Z,100563.47
2022-09-26T07:29:32.967Z,100544.44
2022-09-26T07:32:39.808Z,100561.34
2022-09-26T07:36:18.591Z,100553.63
2022-09-26T07:39:21.920Z,100545.06
2022-09-26T07:42:24.306Z,100547.78
2022-09-26T07:45:45.087Z,100543.63
2022-09-26T07:49:05.969Z,100536.53
2022-09-26T07:52:29.293Z,100535.06
2022-09-26T07:56:11.152Z,100546.13
2022-09-26T07:59:35.798Z,100536.31
2022-09-26T08:03:01.403Z,100525.47
2022-09-26T08:06:05.080Z,100528.59
2022-09-26T08:09:07.334Z,100524.00
2022-09-26T08:12:48.422Z,100509.59
2022-09-26T08:16:11.724Z,100518.59
2022-09-26T08:19:18.102Z,100520.66
2022-09-26T08:22:20.661Z,100531.31
2022-09-26T08:25:26.512Z,100516.69
2022-09-26T08:28:36.990Z,100517.28
2022-09-26T08:31:40.065Z,100504.94
2022-09-26T08:34:43.294Z,100499.91
2022-09-26T08:38:15.308Z,100503.69
2022-09-26T08:41:34.772Z,100505.75
2022-09-26T08:45:37.607Z,100496.94
2022-09-26T08:49:14.673Z,100486.47
2022-09-26T08:52:41.430Z,100480.84
2022-09-26T08:55:46.563Z,100475.19
2022-09-26T08:58:52.466Z,100473.53
2022-09-26T09:02:02.615Z,100473.13
2022-09-26T09:05:33.093Z,100471.25
2022-09-26T09:08:38.259Z,100455.75
2022-09-26T09:12:09.312Z,100454.72
2022-09-26T09:15:37.008Z,100454.72
2022-09-26T09:18:59.280Z,100452.16
2022-09-26T09:22:40.909Z,100462.38
2022-09-26T09:29:49.723Z,100458.59
2022-09-26T09:33:19.130Z,100453.38
2022-09-26T09:36:41.882Z,100475.06
2022-09-26T09:40:03.379Z,100474.81
2022-09-26T09:43:26.617Z,100471.25
2022-09-26T09:46:36.188Z,100475.19
2022-09-26T09:49:38.333Z,100474.78
2022-09-26T09:52:52.319Z,100476.44
2022-09-26T09:56:08.796Z,100472.03
2022-09-26T09:59:19.706Z,100458.59
2022-09-26T10:03:11.420Z,100416.16
2022-09-26T10:06:45.642Z,100445.81
2022-09-26T10:09:41.292Z,100451.25
2022-09-26T10:13:02.053Z,100411.97
2022-09-26T10:16:23.981Z,100418.81
2022-09-26T10:19:38.790Z,100413.34
2022-09-26T10:22:45.581Z,100407.25
2022-09-26T10:26:03.697Z,100398.66
2022-09-26T10:29:30.414Z,100404.25
2022-09-26T10:32:45.747Z,100411.59
2022-09-26T10:36:09.828Z,100406.16
2022-09-26T10:39:35.167Z,100402.59
2022-09-26T10:42:38.361Z,100380.81
2022-09-26T10:45:40.639Z,100389.16
2022-09-26T10:49:03.385Z,100377.38
2022-09-26T10:52:29.543Z,100369.59
2022-09-26T10:55:41.905Z,100363.81
2022-09-26T10:58:47.272Z,100346.38
2022-09-26T11:01:56.128Z,100354.63
2022-09-26T11:05:20.550Z,100338.53
2022-09-26T11:08:51.668Z,100346.44
2022-09-26T11:12:30.959Z,100344.94
2022-09-26T11:15:42.947Z,100330.06
2022-09-26T11:19:10.399Z,100336.09
2022-09-26T11:22:34.485Z,100341.91
2022-09-26T11:26:11.327Z,100340.41
2022-09-26T11:29:34.773Z,100338.75
2022-09-26T11:32:44.843Z,100331.03
2022-09-26T11:36:07.520Z,100325.81
2022-09-26T11:39:18.583Z,100320.38
2022-09-26T11:42:28.905Z,100325.19
2022-09-26T11:45:56.114Z,100332.97
2022-09-26T11:49:38.657Z,100314.03
2022-09-26T11:53:13.774Z,100336.25
2022-09-26T11:56:42.141Z,100334.06
2022-09-26T12:00:13.200Z,100329.09
2022-09-26T12:03:33.449Z,100317.53
2022-09-26T12:07:09.716Z,100315.25
2022-09-26T12:10:25.261Z,100295.34
2022-09-26T12:13:38.408Z,100287.47
2022-09-26T12:17:04.794Z,100291.78
2022-09-26T12:20:20.031Z,100295.56
2022-09-26T12:23:40.234Z,100285.44
2022-09-26T12:27:04.102Z,100282.56
2022-09-26T12:30:15.608Z,100277.50
2022-09-26T12:33:26.411Z,100280.13
2022-09-26T12:36:47.496Z,100269.22
2022-09-26T12:39:58.767Z,100291.19
2022-09-26T12:43:19.462Z,100280.88
2022-09-26T12:46:31.765Z,100279.22
2022-09-26T12:49:58.554Z,100289.22
2022-09-26T12:53:17.372Z,100281.19
2022-09-26T12:56:30.232Z,100276.94
2022-09-26T12:59:36.484Z,100249.47
2022-09-26T13:03:09.893Z,100252.78
2022-09-26T13:06:31.688Z,100254.50
2022-09-26T13:09:33.770Z,100259.09
2022-09-26T13:12:42.577Z,100251.38
2022-09-26T13:16:16.742Z,100242.00
2022-09-26T13:19:40.222Z,100206.13
2022-09-26T13:22:42.536Z,100222.81
2022-09-26T13:25:50.391Z,100228.25
2022-09-26T13:29:17.157Z,100222.81
2022-09-26T13:32:34.925Z,100215.50
2022-09-26T13:35:41.147Z,100214.63
2022-09-26T13:38:58.558Z,100201.00
2022-09-26T13:42:10.193Z,100198.63
2022-09-26T13:45:24.382Z,100200.06
2022-09-26T13:48:39.674Z,100198.16
2022-09-26T13:52:11.641Z,100194.00
2022-09-26T13:55:19.428Z,100186.88
2022-09-26T13:58:25.671Z,100181.06
2022-09-26T14:01:28.260Z,100187.59
2022-09-26T14:04:36.953Z,100176.91
2022-09-26T14:07:57.384Z,100175.88
2022-09-26T14:11:12.020Z,100168.97
2022-09-26T14:14:18.033Z,100165.06
2022-09-26T14:17:58.838Z,100171.41
2022-09-26T14:21:09.817Z,100163.13
2022-09-26T14:24:20.657Z,100156.69
2022-09-26T14:27:37.668Z,100166.13
2022-09-26T14:30:39.686Z,100172.66
2022-09-26T14:33:44.189Z,100146.25
2022-09-26T14:36:47.680Z,100167.72
2022-09-26T14:40:07.943Z,100176.97
2022-09-26T14:43:16.068Z,100174.09
2022-09-26T14:46:25.704Z,100173.50
2022-09-26T14:49:28.985Z,100164.94
2022-09-26T14:52:33.025Z,100159.34
2022-09-26T14:55:35.066Z,100146.41
2022-09-26T14:58:37.343Z,100149.13
2022-09-26T15:01:40.860Z,100140.38
2022-09-26T15:04:45.770Z,100144.38
2022-09-26T15:07:53.689Z,100140.00
2022-09-26T15:11:00.607Z,100135.22
2022-09-26T15:14:17.066Z,100132.94
2022-09-26T15:17:27.709Z,100133.41
2022-09-26T15:20:32.194Z,100134.44
2022-09-26T15:23:46.544Z,100127.78
2022-09-26T15:26:49.577Z,100120.91
2022-09-26T15:29:58.130Z,100106.31
2022-09-26T15:33:04.865Z,100111.75
2022-09-26T15:36:06.937Z,100117.66
2022-09-26T15:39:32.367Z,100109.13
2022-09-26T15:42:52.828Z,100108.13
2022-09-26T15:46:03.584Z,100109.19
2022-09-26T15:49:15.890Z,100109.88
2022-09-26T15:52:19.559Z,100113.84
2022-09-26T15:56:08.967Z,100110.53
2022-09-26T15:59:13.566Z,100076.44
2022-09-26T16:02:36.619Z,100097.22
2022-09-26T16:05:38.667Z,100111.03
2022-09-26T16:08:42.633Z,100113.16
2022-09-26T16:11:50.232Z,100105.44
2022-09-26T16:15:00.434Z,100103.78
2022-09-26T16:18:02.728Z,100089.22
2022-09-26T16:21:22.766Z,100083.38
2022-09-26T16:24:34.403Z,100086.69
2022-09-26T16:27:36.325Z,100082.31
2022-09-26T16:30:41.863Z,100101.56
2022-09-26T16:33:51.165Z,100093.03
2022-09-26T16:36:53.687Z,100098.69
2022-09-26T16:39:59.510Z,100103.50
2022-09-26T16:43:14.718Z,100094.53
2022-09-26T16:46:18.625Z,100092.63
2022-09-26T16:49:43.053Z,100084.72
2022-09-26T16:52:46.055Z,100066.97
2022-09-26T16:55:48.071Z,100067.00
2022-09-26T16:58:53.942Z,100070.97
2022-09-26T17:01:59.179Z,100075.41
2022-09-26T17:05:01.520Z,100084.38
2022-09-26T17:08:04.388Z,100085.66
2022-09-26T17:11:14.458Z,100095.50
2022-09-26T17:14:19.803Z,100097.97
2022-09-26T17:17:25.437Z,100092.97
2022-09-26T17:20:28.774Z,100086.31
2022-09-26T17:23:41.994Z,100086.94
2022-09-26T17:26:53.513Z,100081.72
2022-09-26T17:30:00.508Z,100073.38
2022-09-26T17:33:04.473Z,100043.06
2022-09-26T17:36:10.930Z,100064.31
2022-09-26T17:39:15.175Z,100092.00
2022-09-26T17:42:17.449Z,100069.16
2022-09-26T17:45:20.256Z,100090.16
2022-09-26T17:48:27.902Z,100092.66
2022-09-26T17:51:31.294Z,100093.50
2022-09-26T17:54:42.509Z,100082.44
2022-09-26T17:57:44.646Z,100092.66
2022-09-26T18:00:49.413Z,100084.97
2022-09-26T18:03:55.780Z,100078.91
2022-09-26T18:07:02.294Z,100075.97
2022-09-26T18:10:07.680Z,100081.00
2022-09-26T18:13:13.821Z,100081.84
2022-09-26T18:16:16.047Z,100086.28
2022-09-26T18:19:20.940Z,100098.78
2022-09-26T18:22:32.146Z,100103.41
2022-09-26T18:25:37.366Z,100091.72
2022-09-26T18:28:39.448Z,100094.66
2022-09-26T18:31:45.301Z,100096.13
2022-09-26T18:34:47.450Z,100103.84
2022-09-26T18:37:49.679Z,100088.75
2022-09-26T18:40:55.548Z,100101.31
2022-09-26T18:44:00.879Z,100102.34
2022-09-26T18:47:07.969Z,100099.19
2022-09-26T18:50:21.884Z,100092.34
2022-09-26T18:53:29.483Z,100079.38
2022-09-26T18:56:50.242Z,100097.13
2022-09-26T18:59:52.192Z,100104.47
2022-09-26T19:02:54.446Z,100097.56
2022-09-26T19:06:23.267Z,100101.75
2022-09-26T19:09:27.254Z,100085.50
2022-09-26T19:12:30.468Z,100091.72
2022-09-26T19:15:32.569Z,100096.06
2022-09-26T19:18:34.821Z,100093.19
2022-09-26T19:21:43.539Z,100084.63
2022-09-26T19:24:52.664Z,100077.91
2022-09-26T19:27:54.769Z,100064.78
2022-09-26T19:30:57.069Z,100063.72
2022-09-26T19:33:59.131Z,100048.69
2022-09-26T19:37:03.228Z,100053.06
2022-09-26T19:40:17.364Z,100038.88
2022-09-26T19:43:20.997Z,100050.13
2022-09-26T19:46:27.629Z,100042.19
2022-09-26T19:49:32.082Z,100035.94
2022-09-26T19:52:34.078Z,100035.94
2022-09-26T19:55:36.431Z,100030.94
2022-09-26T19:58:38.485Z,100036.38
2022-09-26T20:01:42.987Z,100041.16
2022-09-26T20:04:45.635Z,100027.34
2022-09-26T20:07:48.254Z,100024.03
2022-09-26T20:10:50.934Z,100027.34
2022-09-26T20:14:11.362Z,100031.94
2022-09-26T20:17:22.468Z,100031.72
2022-09-26T20:20:25.649Z,100046.59
2022-09-26T20:23:27.917Z,100037.38
2022-09-26T20:26:32.818Z,100028.41
2022-09-26T20:29:55.667Z,100034.66
2022-09-26T20:32:59.161Z,100044.03
2022-09-26T20:36:05.257Z,100030.13
2022-09-26T20:39:13.295Z,100026.75
2022-09-26T20:42:18.850Z,100023.47
2022-09-26T20:45:33.885Z,100021.19
2022-09-26T20:48:37.062Z,100006.13
2022-09-26T20:51:39.195Z,100001.31
2022-09-26T20:54:42.443Z,100000.03
2022-09-26T20:57:45.560Z,100011.72
2022-09-26T21:00:48.393Z,100014.44
2022-09-26T21:03:53.094Z,100011.94
2022-09-26T21:06:55.909Z,99995.78
2022-09-26T21:09:58.022Z,100000.69
2022-09-26T21:13:01.170Z,100017.59
2022-09-26T21:16:03.400Z,100027.00
2022-09-26T21:19:06.833Z,100032.28
2022-09-26T21:22:12.582Z,100017.97
2022-09-26T21:25:20.577Z,100028.34
2022-09-26T21:28:27.807Z,100018.31
2022-09-26T21:31:35.522Z,100007.25
2022-09-26T21:34:38.922Z,100014.94
2022-09-26T21:37:43.008Z,100004.06
2022-09-26T21:40:48.014Z,99984.72
2022-09-26T21:43:58.146Z,99964.50
2022-09-26T21:47:00.182Z,99987.28
2022-09-26T21:50:05.689Z,99993.53
2022-09-26T21:53:17.224Z,99977.47
2022-09-26T21:56:27.290Z,99945.06
2022-09-26T21:59:30.521Z,99982.00
2022-09-26T22:02:32.728Z,99979.72
2022-09-26T22:05:34.885Z,99965.19
2022-09-26T22:08:37.857Z,99973.03
2022-09-26T22:11:40.292Z,99979.09
2022-09-26T22:14:42.624Z,99971.19
2022-09-26T22:17:44.929Z,99979.72
2022-09-26T22:20:46.917Z,99977.75
2022-09-26T22:23:50.539Z,99965.66
2022-09-26T22:26:52.755Z,99975.06
2022-09-26T22:29:54.906Z,99953.66
2022-09-26T22:32:57.523Z,99966.34
2022-09-26T22:35:59.953Z,99990.72
2022-09-26T22:39:02.112Z,99997.13
2022-09-26T22:42:04.353Z,99990.50
2022-09-26T22:45:06.914Z,100020.06
2022-09-26T22:48:08.903Z,100014.44
2022-09-26T22:51:11.053Z,100013.66
2022-09-26T22:54:13.040Z,100032.25
2022-09-26T22:57:16.665Z,100045.38
2022-09-26T23:00:18.770Z,100043.94
2022-09-26T23:03:20.735Z,100038.09
2022-09-26T23:06:24.048Z,100057.91
2022-09-26T23:09:26.158Z,100047.88
2022-09-26T23:12:28.156Z,100037.00
2022-09-26T23:15:30.877Z,100041.59
2022-09-26T23:18:34.791Z,100017.06
2022-09-26T23:21:36.787Z,100038.44
2022-09-26T23:24:38.751Z,100033.03
2022-09-26T23:27:40.720Z,100025.47
2022-09-26T23:30:43.964Z,100009.06
2022-09-26T23:33:46.495Z,100019.06
2022-09-26T23:36:48.810Z,100019.19
2022-09-26T23:39:50.798Z,100021.31
2022-09-26T23:42:52.838Z,100022.53
2022-09-26T23:45:55.314Z,100024.44
2022-09-26T23:48:57.425Z,100020.03
2022-09-26T23:51:59.547Z,100013.19
2022-09-26T23:55:01.550Z,100007.13
2022-09-26T23:58:04.033Z,100010.66
